Time;durP1;ratioP1;P1;durP2;ratioP2;P2;SDS_P1;SDS_P2;PMS_P1;PMS_P2;Temp;Humidity;BMP_temperature;BMP_pressure;BME280_temperature;BME280_humidity;BME280_pressure;Samples;Min_cycle;Max_cycle;Signal;HPM_P1;HPM_P2
2021/03/04 00:00:31;;;;;;;104.10;53.10;;;8.40;87.10;;;9.13;70.40;101276.72;5052186;28;20052;-79
2021/03/04 00:02:58;;;;;;;99.50;52.47;;;8.40;87.40;;;9.08;70.08;101281.75;5052772;28;20104;-79
2021/03/04 00:05:25;;;;;;;105.78;52.53;;;8.30;87.20;;;9.00;70.98;101268.97;5052378;28;20562;-79
2021/03/04 00:07:53;;;;;;;94.03;51.67;;;8.30;87.60;;;8.97;70.37;101272.84;5051387;28;20049;-79
2021/03/04 00:10:21;;;;;;;109.63;55.40;;;8.20;87.40;;;8.96;70.48;101264.84;5052003;28;20132;-79
2021/03/04 00:12:50;;;;;;;106.30;53.17;;;8.20;87.70;;;8.94;70.77;101262.28;5051813;28;20052;-79
2021/03/04 00:15:20;;;;;;;102.68;53.72;;;8.20;87.90;;;8.91;70.99;101261.75;5051716;28;20144;-79
2021/03/04 00:17:48;;;;;;;112.20;54.88;;;8.20;88.10;;;8.94;71.13;101259.56;5051937;28;20044;-79
2021/03/04 00:20:18;;;;;;;101.10;53.75;;;8.20;88.00;;;8.92;71.75;101255.31;5052078;28;20254;-79
2021/03/04 00:22:45;;;;;;;108.18;55.40;;;8.20;88.10;;;8.92;71.44;101256.16;5051869;28;20487;-79
2021/03/04 00:25:13;;;;;;;108.90;55.75;;;8.30;88.30;;;8.91;71.79;101248.19;5051295;28;20047;-78
2021/03/04 00:27:40;;;;;;;113.18;56.78;;;8.30;88.40;;;8.89;71.61;101250.19;5051284;28;20115;-79
2021/03/04 00:30:10;;;;;;;115.20;58.97;;;8.30;88.30;;;8.91;72.11;101246.34;5049641;28;20075;-79
2021/03/04 00:32:37;;;;;;;116.40;57.42;;;8.40;88.40;;;8.94;71.72;101253.31;5051476;28;20098;-79
2021/03/04 00:35:06;;;;;;;115.00;61.42;;;8.40;88.40;;;8.94;72.31;101254.16;5051364;28;20524;-79
2021/03/04 00:37:33;;;;;;;113.45;61.90;;;8.40;88.40;;;8.95;72.08;101249.59;5051342;28;20045;-79
2021/03/04 00:40:00;;;;;;;121.35;62.97;;;8.40;88.40;;;8.91;72.62;101245.47;5051872;28;20145;-79
2021/03/04 00:42:28;;;;;;;126.65;62.55;;;8.40;88.40;;;8.88;72.59;101238.50;5051605;28;20053;-79
2021/03/04 00:44:55;;;;;;;121.85;64.65;;;8.50;88.60;;;8.88;73.10;101241.22;5050923;28;20128;-79
2021/03/04 00:47:22;;;;;;;125.05;65.97;;;8.50;88.50;;;8.89;72.74;101239.34;5051096;28;20178;-79
2021/03/04 00:49:49;;;;;;;128.55;65.00;;;8.50;88.70;;;8.93;72.78;101246.16;5051347;28;20075;-79
2021/03/04 00:52:15;;;;;;;120.00;63.55;;;8.40;88.60;;;8.92;72.43;101236.31;5049848;28;20582;-79
2021/03/04 00:54:42;;;;;;;119.20;62.15;;;8.40;88.70;;;8.83;73.01;101240.81;5050734;28;20413;-79
2021/03/04 00:57:09;;;;;;;124.60;65.75;;;8.40;88.80;;;8.93;72.77;101247.03;5049505;28;20071;-79
2021/03/04 00:59:36;;;;;;;124.80;66.85;;;8.40;88.90;;;8.87;72.57;101250.38;5051118;28;20053;-79
2021/03/04 01:02:03;;;;;;;123.93;65.57;;;8.40;88.90;;;8.88;72.48;101238.50;5051119;28;20132;-79
2021/03/04 01:04:30;;;;;;;131.02;66.20;;;8.40;89.00;;;8.85;72.68;101235.22;5048561;28;20053;-79
2021/03/04 01:06:57;;;;;;;122.53;65.28;;;8.40;88.70;;;8.81;72.95;101237.41;5049949;28;20045;-79
2021/03/04 01:09:23;;;;;;;134.20;69.22;;;8.40;89.00;;;8.83;72.86;101229.97;5050712;28;20127;-79
2021/03/04 01:11:50;;;;;;;132.57;71.93;;;8.40;89.20;;;8.89;73.64;101223.94;5050943;28;20052;-79
2021/03/04 01:14:17;;;;;;;128.23;67.78;;;8.50;89.50;;;8.88;73.38;101211.34;5051906;28;20080;-79
2021/03/04 01:16:44;;;;;;;137.10;71.45;;;8.50;89.30;;;8.86;73.66;101199.78;5048911;28;20045;-79
2021/03/04 01:19:11;;;;;;;124.70;64.60;;;8.50;89.20;;;8.82;73.56;101195.69;5050988;28;20127;-79
2021/03/04 01:21:38;;;;;;;111.93;59.90;;;8.50;89.10;;;8.84;73.03;101215.38;5050257;28;20052;-79
2021/03/04 01:24:07;;;;;;;121.68;62.20;;;8.70;88.80;;;8.86;73.44;101215.25;5050135;28;20132;-79
2021/03/04 01:26:35;;;;;;;116.30;60.42;;;8.50;88.90;;;8.87;73.16;101215.09;5050045;28;20064;-79
2021/03/04 01:29:02;;;;;;;124.43;62.05;;;8.50;89.00;;;8.91;73.81;101204.75;5049579;28;20079;-79
2021/03/04 01:31:29;;;;;;;115.30;61.00;;;8.50;89.30;;;8.93;73.88;101198.16;5051228;28;20049;-79
2021/03/04 01:33:57;;;;;;;118.80;62.42;;;8.60;89.40;;;8.91;74.01;101194.75;5050400;28;20143;-79
2021/03/04 01:36:23;;;;;;;124.55;63.22;;;8.60;89.50;;;8.92;74.26;101196.44;5050324;28;20051;-79
2021/03/04 01:38:50;;;;;;;122.68;63.60;;;8.50;89.80;;;8.89;74.21;101190.47;5051036;28;20127;-79
2021/03/04 01:41:17;;;;;;;124.38;65.18;;;8.50;90.00;;;8.92;74.35;101191.03;5050751;28;20087;-79
2021/03/04 01:43:43;;;;;;;123.50;64.20;;;8.50;90.10;;;8.83;74.68;101181.09;5050619;28;20049;-79
2021/03/04 01:46:11;;;;;;;124.82;65.50;;;8.50;90.10;;;8.82;74.43;101179.41;5050073;28;20121;-79
2021/03/04 01:48:37;;;;;;;124.43;64.10;;;8.40;90.20;;;8.80;74.21;101170.56;5050325;28;20044;-79
2021/03/04 01:51:05;;;;;;;113.75;62.88;;;8.40;90.50;;;8.72;74.52;101173.19;5050663;28;20051;-79
2021/03/04 01:53:32;;;;;;;122.38;64.15;;;8.40;90.30;;;8.71;74.88;101161.50;5050755;28;20502;-79
2021/03/04 01:56:00;;;;;;;119.53;63.45;;;8.30;90.70;;;8.71;74.63;101168.78;5053329;28;20144;-79
2021/03/04 01:58:27;;;;;;;113.18;60.70;;;8.30;90.60;;;8.72;74.44;101171.38;5050095;28;20075;-79
2021/03/04 02:00:55;;;;;;;113.70;60.20;;;8.30;90.80;;;8.69;74.39;101182.50;5049998;28;20416;-79
2021/03/04 02:03:22;;;;;;;110.88;58.45;;;8.20;90.90;;;8.72;74.21;101174.06;5049818;28;20053;-79
2021/03/04 02:05:48;;;;;;;120.13;60.83;;;8.20;91.00;;;8.74;74.68;101179.34;5049746;28;20123;-79
2021/03/04 02:08:24;;;;;;;117.03;60.33;;;8.20;91.10;;;8.71;74.40;101172.34;5050121;28;20509;-79
2021/03/04 02:10:58;;;;;;;113.72;59.63;;;8.20;91.30;;;8.65;75.04;101178.41;5050513;28;20516;-79
2021/03/04 02:13:34;;;;;;;120.57;61.63;;;8.20;91.40;;;8.69;75.38;101173.53;5050270;28;20115;-78
2021/03/04 02:16:07;;;;;;;115.53;61.80;;;8.20;91.70;;;8.73;75.46;101170.34;5049619;28;20564;-79
2021/03/04 02:18:40;;;;;;;122.78;60.13;;;8.30;92.00;;;8.75;75.60;101168.31;5049849;28;20562;-79
2021/03/04 02:21:37;;;;;;;116.57;63.72;;;8.30;92.00;;;8.76;75.79;101161.88;5050500;28;20079;-79
2021/03/04 02:24:29;;;;;;;114.68;58.72;;;8.30;92.10;;;8.72;75.97;101162.34;5045971;28;20080;-79
2021/03/04 02:27:11;;;;;;;122.45;62.47;;;8.30;92.00;;;8.67;75.38;101153.84;5049956;28;20045;-79
2021/03/04 02:29:45;;;;;;;119.75;62.28;;;8.30;92.00;;;8.64;75.73;101154.97;5053432;28;20052;-79
2021/03/04 02:32:14;;;;;;;120.30;63.17;;;8.30;92.00;;;8.67;75.85;101159.28;5054208;28;20047;-79
2021/03/04 02:34:47;;;;;;;123.63;64.07;;;8.30;92.20;;;8.67;75.88;101165.53;5053337;28;20078;-79
2021/03/04 02:37:18;;;;;;;125.57;65.03;;;8.30;92.30;;;8.63;76.16;101163.31;5052619;28;20047;-79
2021/03/04 02:39:48;;;;;;;120.03;63.92;;;8.30;92.40;;;8.65;76.37;101159.41;5053903;28;20041;-79
2021/03/04 02:42:20;;;;;;;128.25;63.67;;;8.30;92.40;;;8.68;76.51;101169.97;5053579;28;20043;-79
2021/03/04 02:44:48;;;;;;;125.82;63.20;;;8.30;92.60;;;8.68;76.48;101166.38;5053467;28;20080;-79
2021/03/04 02:47:16;;;;;;;116.82;63.00;;;8.50;92.90;;;8.69;76.45;101159.97;5053819;28;20045;-79
2021/03/04 02:49:44;;;;;;;119.40;62.22;;;8.40;92.90;;;8.71;77.23;101149.81;5053515;28;20481;-79
2021/03/04 02:52:12;;;;;;;115.45;61.28;;;8.40;92.90;;;8.71;77.25;101149.81;5053921;28;20140;-79
2021/03/04 02:54:40;;;;;;;125.13;62.17;;;8.40;93.00;;;8.69;77.13;101141.81;5054476;28;20075;-79
2021/03/04 02:57:11;;;;;;;116.18;61.45;;;8.50;93.20;;;8.72;76.74;101141.50;5053037;28;20132;-79
2021/03/04 02:59:39;;;;;;;115.90;58.97;;;8.50;93.20;;;8.73;76.68;101131.50;5054402;28;20500;-79
2021/03/04 03:02:08;;;;;;;109.88;56.45;;;8.50;93.00;;;8.75;76.99;101129.47;5054456;28;20106;-79
2021/03/04 03:04:37;;;;;;;102.57;53.30;;;8.80;93.00;;;8.76;77.27;101125.78;5053432;28;20124;-79
2021/03/04 03:07:09;;;;;;;103.40;52.47;;;8.50;92.70;;;8.76;76.77;101121.19;5066662;28;20048;-79
2021/03/04 03:09:38;;;;;;;105.85;53.10;;;8.50;92.70;;;8.80;76.58;101113.59;5074461;28;20072;-79
2021/03/04 03:12:08;;;;;;;108.28;52.30;;;8.60;92.60;;;8.79;76.54;101107.28;5073981;28;20041;-79
2021/03/04 03:14:34;;;;;;;99.43;51.40;;;8.50;92.50;;;8.77;77.04;101109.31;5072552;28;20091;-79
2021/03/04 03:17:03;;;;;;;107.55;53.53;;;8.50;92.60;;;8.78;77.10;101112.91;5073249;28;20500;-79
2021/03/04 03:19:31;;;;;;;106.20;54.92;;;8.60;92.80;;;8.77;76.67;101111.16;5073574;28;20115;-79
2021/03/04 03:21:57;;;;;;;106.22;53.83;;;8.50;92.70;;;8.79;77.15;101099.13;5073978;28;20075;-79
2021/03/04 03:24:25;;;;;;;98.70;50.85;;;8.50;92.80;;;8.80;76.75;101097.28;5072097;28;20051;-79
2021/03/04 03:26:52;;;;;;;106.28;53.17;;;8.50;92.70;;;8.80;77.07;101098.13;5073520;28;20124;-79
2021/03/04 03:29:19;;;;;;;108.03;54.88;;;8.60;92.40;;;8.82;76.81;101098.00;5074016;28;20231;-79
2021/03/04 03:31:50;;;;;;;94.68;51.47;;;8.60;92.60;;;8.77;76.71;101087.59;5068223;28;20036;-79
2021/03/04 03:34:18;;;;;;;;;;;8.60;92.60;;;8.81;77.02;101082.69;5068126;28;20044;-79
2021/03/04 03:36:46;;;;;;;105.72;54.08;;;8.50;92.70;;;8.76;76.51;101079.63;5072595;28;20007;-79
2021/03/04 03:39:14;;;;;;;101.85;50.28;;;8.50;92.30;;;8.79;76.64;101082.00;5072233;28;20081;-79
2021/03/04 03:41:43;;;;;;;108.57;53.22;;;8.50;92.40;;;8.75;76.47;101075.19;5073249;28;20044;-79
2021/03/04 03:44:13;;;;;;;95.82;50.15;;;8.70;92.30;;;8.75;76.44;101070.63;5072604;28;20554;-79
2021/03/04 03:46:41;;;;;;;95.90;50.13;;;8.50;92.00;;;8.69;76.38;101054.13;5069790;28;20126;-79
2021/03/04 03:49:10;;;;;;;95.05;49.05;;;8.50;91.90;;;8.67;76.66;101057.00;5072887;28;20151;-79
2021/03/04 03:51:38;;;;;;;100.35;50.45;;;8.50;91.80;;;8.72;76.02;101046.53;5072932;28;20063;-79
2021/03/04 03:54:07;;;;;;;96.25;48.33;;;8.50;91.90;;;8.72;76.20;101045.66;5072903;28;20405;-79
2021/03/04 03:56:36;;;;;;;97.53;49.15;;;8.50;91.70;;;8.74;75.83;101044.50;5071974;28;20056;-79
2021/03/04 03:59:06;;;;;;;98.43;50.15;;;8.50;91.50;;;8.77;75.37;101057.75;5072870;28;20040;-79
2021/03/04 04:01:36;;;;;;;88.30;47.60;;;8.50;91.00;;;8.70;75.47;101042.25;5072639;28;20044;-79
2021/03/04 04:04:03;;;;;;;94.38;48.30;;;8.30;91.20;;;8.66;75.15;101043.59;5072514;28;20120;-79
2021/03/04 04:06:31;;;;;;;96.38;48.75;;;8.30;91.30;;;8.66;75.12;101051.72;5070799;28;20489;-79
2021/03/04 04:08:59;;;;;;;95.65;49.20;;;8.30;91.20;;;8.61;75.22;101046.78;5071241;28;20047;-79
2021/03/04 04:11:29;;;;;;;100.55;49.92;;;8.20;91.10;;;8.63;74.66;101046.63;5068696;28;20083;-78
2021/03/04 04:13:56;;;;;;;91.97;47.97;;;8.20;91.40;;;8.60;74.57;101040.53;5068957;28;20548;-79
2021/03/04 04:16:26;;;;;;;95.85;49.13;;;8.10;91.30;;;8.53;75.15;101044.88;5066424;28;20049;-79
2021/03/04 04:18:55;;;;;;;94.93;48.67;;;8.00;91.50;;;8.49;74.82;101035.34;5068626;28;20492;-79
2021/03/04 04:21:25;;;;;;;94.00;46.88;;;8.00;91.70;;;8.51;74.60;101030.63;5071629;28;20575;-79
2021/03/04 04:23:52;;;;;;;96.28;48.58;;;8.00;91.60;;;8.53;74.42;101028.59;5071280;28;20040;-79
2021/03/04 04:26:20;;;;;;;95.28;48.47;;;7.90;91.80;;;8.54;74.75;101035.72;5070852;28;20051;-79
2021/03/04 04:28:47;;;;;;;99.30;49.35;;;7.90;91.70;;;8.49;74.56;101031.75;5071171;28;20114;-79
2021/03/04 04:31:14;;;;;;;84.43;46.03;;;7.90;91.60;;;8.41;74.64;101040.66;5071000;28;20101;-79
2021/03/04 04:33:41;;;;;;;94.40;46.90;;;7.80;91.20;;;8.44;74.31;101036.84;5070868;28;20124;-78
2021/03/04 04:36:09;;;;;;;98.18;48.35;;;7.70;91.50;;;8.33;74.01;101038.75;5070493;28;20040;-79
2021/03/04 04:38:35;;;;;;;90.20;46.75;;;7.70;91.30;;;8.28;74.17;101040.22;5068812;28;20147;-79
2021/03/04 04:41:03;;;;;;;86.88;46.67;;;7.60;91.20;;;8.28;74.18;101029.38;5070447;28;20045;-79
2021/03/04 04:43:30;;;;;;;93.10;46.45;;;7.50;91.90;;;8.22;73.89;101026.31;5071214;28;20135;-79
2021/03/04 04:45:57;;;;;;;91.63;46.55;;;7.50;91.70;;;8.18;73.99;101030.31;5071336;28;20135;-79
2021/03/04 04:48:23;;;;;;;100.00;47.05;;;7.50;91.90;;;8.22;73.83;101031.72;5070451;28;20074;-79
2021/03/04 04:50:50;;;;;;;85.82;46.17;;;7.50;91.90;;;8.18;73.77;101041.16;5070021;28;20139;-79
2021/03/04 04:53:17;;;;;;;94.28;47.55;;;7.50;92.40;;;8.17;74.53;101047.59;5070159;28;20068;-79
2021/03/04 04:55:43;;;;;;;86.47;44.10;;;7.50;92.60;;;8.14;74.43;101041.63;5069658;28;20109;-79
2021/03/04 04:58:10;;;;;;;91.03;45.80;;;7.50;92.50;;;8.10;74.76;101048.38;5067852;28;20492;-79
2021/03/04 05:00:38;;;;;;;98.25;48.33;;;7.40;92.10;;;8.06;74.69;101039.69;5068071;28;20500;-79
2021/03/04 05:03:05;;;;;;;94.50;46.97;;;7.40;92.30;;;8.09;74.55;101024.97;5070411;28;20064;-79
2021/03/04 05:05:32;;;;;;;91.15;47.17;;;7.40;92.10;;;8.05;74.24;101021.72;5070134;28;20400;-79
2021/03/04 05:07:59;;;;;;;93.28;47.00;;;7.30;92.30;;;8.01;75.06;101028.47;5069644;28;20045;-79
2021/03/04 05:10:25;;;;;;;92.70;47.38;;;7.40;92.40;;;8.03;74.58;101024.59;5070326;28;20124;-79
2021/03/04 05:12:52;;;;;;;106.35;49.97;;;7.40;92.70;;;8.03;74.48;101026.44;5069610;28;20048;-79
2021/03/04 05:15:20;;;;;;;94.43;47.30;;;7.40;92.60;;;8.00;74.43;101018.66;5069515;28;20139;-79
2021/03/04 05:17:48;;;;;;;90.68;45.03;;;7.30;92.60;;;8.02;74.59;101014.75;5068747;28;20044;-79
2021/03/04 05:20:16;;;;;;;88.60;44.15;;;7.40;92.80;;;7.96;74.89;101009.13;5068849;28;20516;-79
2021/03/04 05:22:42;;;;;;;89.28;46.28;;;7.40;92.50;;;7.92;75.29;101002.28;5070440;28;20127;-80
2021/03/04 05:25:11;;;;;;;90.65;47.53;;;7.30;92.80;;;7.93;75.48;100998.59;5070592;28;20528;-79
2021/03/04 05:27:37;;;;;;;94.18;46.95;;;7.30;92.90;;;7.94;74.96;100994.84;5070297;28;20045;-79
2021/03/04 05:30:06;;;;;;;92.38;45.55;;;7.30;92.90;;;7.95;75.16;100991.16;5070415;28;20063;-79
2021/03/04 05:32:34;;;;;;;84.05;44.78;;;7.30;93.00;;;7.93;75.06;100995.88;5070909;28;20056;-80
2021/03/04 05:35:02;;;;;;;94.55;45.40;;;7.40;93.00;;;7.96;75.23;100982.03;5070096;28;20108;-80
2021/03/04 05:37:29;;;;;;;100.15;47.58;;;7.40;93.10;;;7.96;76.00;100982.88;5070257;28;20839;-79
2021/03/04 05:39:55;;;;;;;94.57;44.85;;;7.40;93.00;;;7.99;75.18;100992.53;5070244;28;20052;-79
2021/03/04 05:42:22;;;;;;;95.40;47.28;;;7.50;93.00;;;7.98;75.46;100990.84;5070116;28;20424;-79
2021/03/04 05:44:50;;;;;;;106.85;47.88;;;7.50;92.70;;;7.93;75.55;101010.25;5070496;28;20554;-79
2021/03/04 05:47:18;;;;;;;99.65;47.47;;;7.50;92.70;;;7.93;75.30;101004.00;5069666;28;20048;-79
2021/03/04 05:49:50;;;;;;;96.03;45.13;;;7.50;92.70;;;7.95;76.05;101002.81;5070027;28;20097;-79
2021/03/04 05:52:19;;;;;;;106.43;47.70;;;7.50;92.80;;;7.99;75.44;100992.53;5070350;28;20123;-79
2021/03/04 05:54:47;;;;;;;104.80;48.03;;;7.50;92.80;;;7.97;75.34;100989.13;5052737;28;20100;-79
2021/03/04 05:57:15;;;;;;;107.43;48.30;;;7.50;92.70;;;7.99;75.67;100989.81;5049735;28;20048;-85
2021/03/04 05:59:42;;;;;;;110.70;51.38;;;7.50;92.50;;;8.01;75.34;100990.50;5049701;28;20044;-84
2021/03/04 06:02:10;;;;;;;115.35;49.80;;;7.50;92.30;;;8.02;75.13;100987.66;5050912;28;20041;-80
2021/03/04 06:04:37;;;;;;;110.47;50.15;;;7.60;92.30;;;7.97;75.67;100983.72;5053177;28;20100;-81
2021/03/04 06:07:05;;;;;;;113.03;50.65;;;7.50;92.30;;;7.98;75.07;100985.44;5053359;28;20057;-81
2021/03/04 06:09:32;;;;;;;123.78;52.80;;;7.50;92.20;;;7.94;75.23;100981.28;5053987;28;20394;-81
2021/03/04 06:12:03;;;;;;;124.63;51.90;;;7.50;92.20;;;7.94;75.16;100975.88;5053994;28;20041;-81
2021/03/04 06:14:30;;;;;;;126.45;53.15;;;7.50;92.30;;;7.93;75.33;100974.19;5053155;28;20072;-81
2021/03/04 06:17:10;;;;;;;139.57;55.65;;;7.60;92.10;;;7.91;75.28;100973.50;5052861;28;20124;-81
2021/03/04 06:19:36;;;;;;;143.15;54.53;;;7.50;92.20;;;7.92;75.32;100969.75;5052123;28;20047;-81
2021/03/04 06:22:03;;;;;;;147.48;55.78;;;7.50;92.10;;;7.90;75.56;100979.91;5052092;28;20178;-80
2021/03/04 06:24:30;;;;;;;159.55;57.90;;;7.40;92.20;;;7.86;75.05;100964.97;5053102;28;20069;-81
2021/03/04 06:26:58;;;;;;;161.85;59.30;;;7.40;92.20;;;7.85;75.40;100966.84;5053180;28;20123;-81
2021/03/04 06:29:26;;;;;;;164.13;59.97;;;7.40;92.40;;;7.91;75.51;100968.91;5051439;28;20041;-84
2021/03/04 06:32:03;;;;;;;169.45;60.15;;;7.40;92.40;;;7.87;75.81;100970.25;5054331;28;20041;-81
2021/03/04 06:34:30;;;;;;;180.82;61.13;;;7.40;92.40;;;7.87;75.43;100972.13;5058710;28;20076;-81
2021/03/04 06:37:00;;;;;;;182.43;63.00;;;7.50;92.80;;;7.84;75.92;100967.84;5055529;28;20124;-80
2021/03/04 06:39:39;;;;;;;175.18;62.25;;;7.40;92.70;;;7.89;75.52;100960.09;5050998;28;20033;-80
2021/03/04 06:42:08;;;;;;;192.90;66.03;;;7.50;92.80;;;7.91;76.21;100968.06;5060722;28;20040;-84
2021/03/04 06:44:46;;;;;;;202.25;66.60;;;7.50;92.70;;;7.88;75.52;100963.84;5071006;28;20556;-86
2021/03/04 06:47:21;;;;;;;191.75;65.07;;;7.50;92.60;;;7.90;75.30;100971.78;5069825;28;20140;-84
2021/03/04 06:49:49;;;;;;;201.05;67.03;;;7.50;92.60;;;7.93;75.84;100974.19;5070197;28;20144;-83
2021/03/04 06:52:27;;;;;;;204.57;67.55;;;7.50;92.80;;;7.90;76.15;100988.03;5069507;28;20496;-83
2021/03/04 06:55:07;;;;;;;228.70;72.90;;;7.50;93.00;;;7.90;76.17;101004.31;5066796;28;20044;-83
2021/03/04 06:57:34;;;;;;;246.93;76.10;;;7.50;93.10;;;7.92;76.81;101007.69;5061498;28;20132;-82
2021/03/04 07:00:01;;;;;;;229.38;76.25;;;7.50;93.30;;;7.90;76.39;101020.56;5058875;28;20124;-83
2021/03/04 07:02:29;;;;;;;253.82;81.35;;;7.50;93.10;;;7.86;76.69;101024.59;5068611;28;20143;-83
2021/03/04 07:04:58;;;;;;;278.92;82.30;;;7.50;93.00;;;7.89;76.18;101029.72;5067502;28;20049;-83
2021/03/04 07:07:26;;;;;;;292.27;86.72;;;7.60;92.70;;;7.88;75.55;101030.72;5064815;28;20128;-83
2021/03/04 07:09:55;;;;;;;287.80;86.78;;;7.50;92.50;;;7.85;76.37;101029.16;5067188;28;20095;-83
2021/03/04 07:12:24;;;;;;;273.45;81.90;;;7.50;92.80;;;7.88;75.86;101038.84;5068794;28;20137;-83
2021/03/04 07:14:54;;;;;;;252.20;77.22;;;7.50;92.90;;;7.85;76.40;101031.03;5070237;28;20064;-83
2021/03/04 07:17:23;;;;;;;259.38;79.30;;;7.50;93.20;;;7.82;76.88;101035.75;5066443;28;20075;-83
2021/03/04 07:19:54;;;;;;;253.93;78.40;;;7.40;93.10;;;7.81;76.55;101036.75;5071558;28;20045;-83
2021/03/04 07:22:21;;;;;;;234.45;72.82;;;7.40;93.10;;;7.82;76.22;101048.44;5063209;28;20053;-83
2021/03/04 07:24:50;;;;;;;239.32;75.95;;;7.40;93.10;;;7.80;76.68;101043.16;5052364;28;20061;-83
2021/03/04 07:27:17;;;;;;;220.88;70.20;;;7.40;93.40;;;7.82;76.34;101046.59;5055657;28;20147;-83
2021/03/04 07:29:45;;;;;;;212.27;69.70;;;7.40;93.90;;;7.81;76.75;101050.28;5053400;28;20417;-83
2021/03/04 07:32:15;;;;;;;220.60;71.88;;;7.40;93.90;;;7.77;77.12;101043.47;5056643;28;20037;-83
2021/03/04 07:34:43;;;;;;;211.68;70.13;;;7.40;94.00;;;7.80;76.82;101043.16;5070269;28;20063;-83
2021/03/04 07:37:14;;;;;;;178.98;62.45;;;7.40;94.20;;;7.78;77.39;101034.34;5062011;28;20051;-83
2021/03/04 07:39:41;;;;;;;163.27;60.55;;;7.40;94.40;;;7.76;76.99;101041.75;5052096;28;20045;-83
2021/03/04 07:42:19;;;;;;;165.02;61.97;;;7.40;94.20;;;7.80;77.10;101032.31;5062626;28;20056;-83
2021/03/04 07:44:46;;;;;;;171.10;62.22;;;7.30;94.80;;;7.82;77.58;101029.47;5071889;28;20086;-83
2021/03/04 07:47:14;;;;;;;162.52;60.67;;;7.40;94.70;;;7.83;77.79;101034.72;5074104;28;20052;-84
2021/03/04 07:49:43;;;;;;;161.15;58.50;;;7.40;94.60;;;7.80;76.97;101026.91;5074394;28;20045;-84
2021/03/04 07:52:13;;;;;;;168.95;61.08;;;7.40;94.40;;;7.83;77.46;101017.63;5077179;28;20047;-84
2021/03/04 07:54:42;;;;;;;165.40;59.80;;;7.40;94.60;;;7.86;77.46;101005.63;5072772;28;20072;-84
2021/03/04 07:57:11;;;;;;;158.63;57.30;;;7.40;94.90;;;7.86;78.08;101002.91;5063297;28;20047;-84
2021/03/04 07:59:53;;;;;;;156.60;58.05;;;7.40;95.00;;;7.84;78.14;101005.78;5071668;28;20089;-83
2021/03/04 08:02:26;;;;;;;152.40;55.42;;;7.40;95.10;;;7.79;77.68;100997.28;5071451;28;20090;-84
2021/03/04 08:05:04;;;;;;;144.57;56.97;;;7.30;95.10;;;7.76;77.67;101006.53;5067421;28;20051;-84
2021/03/04 08:07:31;;;;;;;134.25;53.17;;;7.30;94.90;;;7.71;77.28;101003.47;5069661;28;20048;-83
2021/03/04 08:10:10;;;;;;;132.27;51.58;;;7.30;94.80;;;7.70;77.65;101004.47;5071994;28;20048;-83
2021/03/04 08:12:48;;;;;;;134.88;52.00;;;7.30;94.80;;;7.71;77.45;101003.47;5071891;28;20041;-84
2021/03/04 08:15:16;;;;;;;135.38;52.63;;;7.30;94.90;;;7.68;77.74;101001.06;5071292;28;20805;-84
2021/03/04 08:17:44;;;;;;;133.35;51.83;;;7.30;95.00;;;7.72;78.20;101001.59;5071333;28;20404;-85
2021/03/04 08:20:13;;;;;;;130.50;50.28;;;7.30;95.60;;;7.72;77.53;101007.03;5056466;28;20135;-84
2021/03/04 08:22:46;;;;;;;118.65;49.13;;;7.30;95.40;;;7.76;77.53;101008.41;5079164;28;20047;-84
2021/03/04 08:25:19;;;;;;;117.25;49.33;;;7.30;95.60;;;7.74;78.12;101005.84;5071488;28;20447;-84
2021/03/04 08:27:47;;;;;;;110.20;47.83;;;7.30;95.60;;;7.77;77.93;100999.28;5062109;28;20072;-84
2021/03/04 08:30:15;;;;;;;111.20;47.65;;;7.30;95.80;;;7.74;77.97;100989.59;5083174;28;20123;-84
2021/03/04 08:32:44;;;;;;;113.68;47.10;;;7.30;95.70;;;7.71;78.47;100989.03;5091679;28;20040;-84
2021/03/04 08:35:19;;;;;;;115.07;45.58;;;7.30;95.70;;;7.70;78.29;100993.63;5078206;28;20688;-84
2021/03/04 08:37:46;;;;;;;104.22;44.80;;;7.30;95.70;;;7.74;77.90;100978.75;5055307;28;20120;-84
2021/03/04 08:40:14;;;;;;;98.00;44.40;;;7.30;96.00;;;7.76;78.40;100979.44;5051153;28;20095;-84
2021/03/04 08:42:40;;;;;;;92.60;40.17;;;7.40;95.90;;;7.77;78.72;100973.03;5051671;28;20135;-84
2021/03/04 08:45:09;;;;;;;67.80;32.75;;;7.40;96.20;;;7.79;78.02;100965.59;5051561;28;20477;-84
2021/03/04 08:47:40;;;;;;;62.53;30.90;;;7.40;95.80;;;7.80;77.84;100966.44;5048836;28;20053;-84
2021/03/04 08:50:09;;;;;;;61.78;29.83;;;7.40;95.00;;;7.81;77.78;100960.88;5052423;28;20565;-84
2021/03/04 08:52:37;;;;;;;58.65;30.42;;;7.40;95.20;;;7.81;78.24;100952.75;5051588;28;20041;-85
2021/03/04 08:55:05;;;;;;;58.03;28.98;;;7.40;95.40;;;7.82;77.54;100949.03;5052531;28;20044;-86
2021/03/04 08:57:33;;;;;;;54.35;27.60;;;7.40;95.30;;;7.80;77.74;100940.19;5068144;28;20123;-86
2021/03/04 09:00:10;;;;;;;57.47;27.73;;;7.40;95.00;;;7.78;78.03;100936.78;5069144;28;20046;-86
2021/03/04 09:02:37;;;;;;;48.85;23.70;;;7.40;95.10;;;7.79;77.34;100933.09;5070257;28;20400;-87
2021/03/04 09:05:09;;;;;;;45.92;23.70;;;7.40;94.90;;;7.76;77.33;100933.38;5064780;28;20708;-87
2021/03/04 09:07:43;;;;;;;45.80;22.88;;;7.30;95.10;;;7.78;77.76;100925.97;5051414;28;20497;-86
2021/03/04 09:10:10;;;;;;;46.55;22.35;;;7.30;95.30;;;7.76;77.81;100935.25;5071453;28;20045;-86
2021/03/04 09:12:42;;;;;;;39.10;20.55;;;7.30;95.20;;;7.75;77.90;100929.00;5071068;28;20040;-87
2021/03/04 09:15:11;;;;;;;36.50;19.35;;;7.30;95.10;;;7.75;77.62;100926.28;5069365;28;20075;-87
2021/03/04 09:17:42;;;;;;;42.92;20.10;;;7.30;95.30;;;7.73;77.84;100936.44;5069140;28;20033;-87
2021/03/04 09:20:12;;;;;;;41.10;21.88;;;7.30;95.20;;;7.73;77.98;100933.72;5070786;28;20040;-87
2021/03/04 09:22:41;;;;;;;46.33;23.03;;;7.30;95.30;;;7.76;77.86;100944.22;5066221;28;20037;-87
2021/03/04 09:25:11;;;;;;;49.10;23.70;;;7.30;95.60;;;7.72;78.00;100942.84;5061588;28;20051;-87
2021/03/04 09:27:38;;;;;;;50.58;24.00;;;7.30;95.00;;;7.71;77.70;100946.56;5065220;28;20044;-87
2021/03/04 09:30:08;;;;;;;50.20;24.02;;;7.30;95.10;;;7.75;78.17;100944.38;5067034;28;20056;-87
2021/03/04 09:32:36;;;;;;;51.70;23.08;;;7.40;95.10;;;7.70;77.78;100947.56;5061181;28;20076;-86
2021/03/04 09:35:12;;;;;;;41.22;20.85;;;7.30;94.80;;;7.64;78.15;100957.16;5063839;28;20041;-87
2021/03/04 09:37:39;;;;;;;39.47;20.63;;;7.30;95.20;;;7.68;78.35;100967.69;5057491;28;20102;-87
2021/03/04 09:40:07;;;;;;;45.58;22.10;;;7.30;95.30;;;7.64;78.31;100969.88;5070524;28;20036;-87
2021/03/04 09:42:37;;;;;;;40.75;21.20;;;7.30;95.30;;;7.62;77.87;100966.47;5071536;28;20044;-86
2021/03/04 09:45:07;;;;;;;48.63;23.88;;;7.30;95.30;;;7.66;77.72;100969.72;5071035;28;20029;-87
2021/03/04 09:47:35;;;;;;;40.72;21.50;;;7.30;95.70;;;7.70;78.37;100965.69;5071115;28;20052;-87
2021/03/04 09:50:15;;;;;;;50.92;25.50;;;7.30;95.90;;;7.70;78.16;100971.94;5067306;28;20528;-87
2021/03/04 09:52:43;;;;;;;45.40;24.02;;;7.30;95.70;;;7.68;77.95;100971.25;5067633;28;20392;-87
2021/03/04 09:55:12;;;;;;;43.83;22.25;;;7.30;95.90;;;7.64;78.70;100956.31;5065059;28;20048;-87
2021/03/04 09:57:41;;;;;;;46.55;24.25;;;7.30;95.70;;;7.62;78.58;100959.19;5065429;28;20387;-87
2021/03/04 10:00:23;;;;;;;47.85;25.55;;;7.30;95.50;;;7.63;78.69;100960.03;5051562;28;20482;-87
2021/03/04 10:02:52;;;;;;;48.47;26.10;;;7.30;95.60;;;7.64;78.18;100950.91;5068883;28;20496;-87
2021/03/04 10:05:21;;;;;;;46.80;26.40;;;7.30;95.10;;;7.63;78.23;100951.91;5070032;28;20507;-86
2021/03/04 10:07:50;;;;;;;49.78;24.73;;;7.30;95.10;;;7.61;78.38;100951.19;5068916;28;20067;-87
2021/03/04 10:10:20;;;;;;;39.38;21.65;;;7.30;95.20;;;7.65;78.38;100949.88;5069006;28;20036;-86
2021/03/04 10:12:50;;;;;;;42.75;21.83;;;7.30;95.40;;;7.66;78.26;100948.88;5079323;28;20105;-87
2021/03/04 10:15:30;;;;;;;34.30;19.13;;;7.30;95.20;;;7.65;78.33;100952.59;5078891;28;20041;-87